sensor_id;sensor_type;location;lat;lon;timestamp;pressure;altitude;pressure_sealevel;temperature;humidity
46710;BME280;32442;51.514;-0.178;2023-04-29T00:01:21;101548.19;;;21.94;43.69
46710;BME280;32442;51.514;-0.178;2023-04-29T00:03:48;101555.81;;;21.94;43.87
46710;BME280;32442;51.514;-0.178;2023-04-29T00:06:15;101554.97;;;21.93;43.52
46710;BME280;32442;51.514;-0.178;2023-04-29T00:08:43;101560.03;;;21.91;43.80
46710;BME280;32442;51.514;-0.178;2023-04-29T00:11:10;101546.56;;;21.88;43.62
46710;BME280;32442;51.514;-0.178;2023-04-29T00:13:37;101554.16;;;21.88;43.95
46710;BME280;32442;51.514;-0.178;2023-04-29T00:16:06;101553.94;;;21.84;43.77
46710;BME280;32442;51.514;-0.178;2023-04-29T00:18:35;101555.38;;;21.82;44.18
46710;BME280;32442;51.514;-0.178;2023-04-29T00:21:03;101548.53;;;21.88;43.73
46710;BME280;32442;51.514;-0.178;2023-04-29T00:23:32;101550.81;;;21.86;44.04
46710;BME280;32442;51.514;-0.178;2023-04-29T00:25:59;101555.38;;;21.82;43.76
46710;BME280;32442;51.514;-0.178;2023-04-29T00:28:26;101555.97;;;21.79;43.95
46710;BME280;32442;51.514;-0.178;2023-04-29T00:30:53;101561.91;;;21.77;44.04
46710;BME280;32442;51.514;-0.178;2023-04-29T00:33:20;101560.00;;;21.72;43.99
46710;BME280;32442;51.514;-0.178;2023-04-29T00:35:47;101563.13;;;21.71;44.24
46710;BME280;32442;51.514;-0.178;2023-04-29T00:38:14;101563.41;;;21.69;44.10
46710;BME280;32442;51.514;-0.178;2023-04-29T00:40:41;101556.41;;;21.67;44.21
46710;BME280;32442;51.514;-0.178;2023-04-29T00:43:09;101563.19;;;21.66;43.78
46710;BME280;32442;51.514;-0.178;2023-04-29T00:45:36;101562.94;;;21.62;43.80
46710;BME280;32442;51.514;-0.178;2023-04-29T00:48:03;101568.31;;;21.59;44.07
46710;BME280;32442;51.514;-0.178;2023-04-29T00:50:30;101578.44;;;21.60;43.81
46710;BME280;32442;51.514;-0.178;2023-04-29T00:52:57;101572.59;;;21.56;44.17
46710;BME280;32442;51.514;-0.178;2023-04-29T00:55:25;101566.41;;;21.54;44.21
46710;BME280;32442;51.514;-0.178;2023-04-29T00:57:53;101573.16;;;21.53;43.85
46710;BME280;32442;51.514;-0.178;2023-04-29T01:00:24;101567.53;;;21.53;44.15
46710;BME280;32442;51.514;-0.178;2023-04-29T01:02:52;101580.25;;;21.51;44.15
46710;BME280;32442;51.514;-0.178;2023-04-29T01:05:20;101577.44;;;21.51;43.75
46710;BME280;32442;51.514;-0.178;2023-04-29T01:10:19;101570.75;;;21.47;43.77
46710;BME280;32442;51.514;-0.178;2023-04-29T01:12:51;101566.53;;;21.44;44.07
46710;BME280;32442;51.514;-0.178;2023-04-29T01:15:27;101574.16;;;21.44;44.09
46710;BME280;32442;51.514;-0.178;2023-04-29T01:20:32;101575.88;;;21.40;44.11
46710;BME280;32442;51.514;-0.178;2023-04-29T01:23:00;101571.09;;;21.40;44.39
46710;BME280;32442;51.514;-0.178;2023-04-29T01:25:27;101569.44;;;21.39;44.46
46710;BME280;32442;51.514;-0.178;2023-04-29T01:27:56;101573.94;;;21.35;44.35
46710;BME280;32442;51.514;-0.178;2023-04-29T01:37:56;101585.28;;;21.30;44.81
46710;BME280;32442;51.514;-0.178;2023-04-29T01:40:25;101582.19;;;21.26;44.93
46710;BME280;32442;51.514;-0.178;2023-04-29T01:45:37;101588.44;;;21.23;45.04
46710;BME280;32442;51.514;-0.178;2023-04-29T01:48:07;101585.91;;;21.22;45.12
46710;BME280;32442;51.514;-0.178;2023-04-29T01:50:35;101582.56;;;21.20;45.20
46710;BME280;32442;51.514;-0.178;2023-04-29T01:53:02;101593.25;;;21.18;44.89
46710;BME280;32442;51.514;-0.178;2023-04-29T01:55:29;101582.03;;;21.18;45.47
46710;BME280;32442;51.514;-0.178;2023-04-29T01:57:56;101585.16;;;21.16;45.15
46710;BME280;32442;51.514;-0.178;2023-04-29T02:00:23;101586.56;;;21.14;45.47
46710;BME280;32442;51.514;-0.178;2023-04-29T02:02:50;101579.25;;;21.13;45.46
46710;BME280;32442;51.514;-0.178;2023-04-29T02:05:17;101589.63;;;21.12;45.33
46710;BME280;32442;51.514;-0.178;2023-04-29T02:07:44;101584.31;;;21.11;45.40
46710;BME280;32442;51.514;-0.178;2023-04-29T02:10:11;101592.75;;;21.11;45.71
46710;BME280;32442;51.514;-0.178;2023-04-29T02:12:39;101594.16;;;21.08;45.58
46710;BME280;32442;51.514;-0.178;2023-04-29T02:15:07;101598.13;;;21.07;45.71
46710;BME280;32442;51.514;-0.178;2023-04-29T02:17:34;101601.25;;;21.06;45.66
46710;BME280;32442;51.514;-0.178;2023-04-29T02:20:01;101599.56;;;21.05;46.09
46710;BME280;32442;51.514;-0.178;2023-04-29T02:22:28;101596.22;;;21.03;45.96
46710;BME280;32442;51.514;-0.178;2023-04-29T02:24:55;101601.28;;;21.01;45.86
46710;BME280;32442;51.514;-0.178;2023-04-29T02:27:22;101602.97;;;21.02;45.91
46710;BME280;32442;51.514;-0.178;2023-04-29T02:29:49;101605.22;;;21.00;46.16
46710;BME280;32442;51.514;-0.178;2023-04-29T02:32:17;101604.69;;;20.98;46.21
46710;BME280;32442;51.514;-0.178;2023-04-29T02:34:45;101613.13;;;20.98;46.48
46710;BME280;32442;51.514;-0.178;2023-04-29T02:37:12;101603.53;;;20.99;46.16
46710;BME280;32442;51.514;-0.178;2023-04-29T02:39:39;101603.84;;;20.97;46.37
46710;BME280;32442;51.514;-0.178;2023-04-29T02:42:07;101601.63;;;20.94;46.57
46710;BME280;32442;51.514;-0.178;2023-04-29T02:44:34;101606.41;;;20.94;46.63
46710;BME280;32442;51.514;-0.178;2023-04-29T02:47:01;101603.28;;;20.95;46.45
46710;BME280;32442;51.514;-0.178;2023-04-29T02:49:28;101606.69;;;20.92;46.65
46710;BME280;32442;51.514;-0.178;2023-04-29T02:51:55;101614.00;;;20.93;46.60
46710;BME280;32442;51.514;-0.178;2023-04-29T02:54:22;101607.00;;;20.91;46.96
46710;BME280;32442;51.514;-0.178;2023-04-29T02:56:49;101608.97;;;20.90;47.09
46710;BME280;32442;51.514;-0.178;2023-04-29T02:59:16;101611.53;;;20.86;47.01
46710;BME280;32442;51.514;-0.178;2023-04-29T03:01:43;101618.81;;;20.88;46.89
46710;BME280;32442;51.514;-0.178;2023-04-29T03:04:10;101627.25;;;20.88;46.86
46710;BME280;32442;51.514;-0.178;2023-04-29T03:06:38;101628.38;;;20.86;47.21
46710;BME280;32442;51.514;-0.178;2023-04-29T03:09:04;101626.69;;;20.85;47.05
46710;BME280;32442;51.514;-0.178;2023-04-29T03:11:32;101634.59;;;20.83;47.26
46710;BME280;32442;51.514;-0.178;2023-04-29T03:13:59;101627.56;;;20.81;47.12
46710;BME280;32442;51.514;-0.178;2023-04-29T03:16:27;101630.38;;;20.81;47.05
46710;BME280;32442;51.514;-0.178;2023-04-29T03:18:54;101627.56;;;20.81;47.26
46710;BME280;32442;51.514;-0.178;2023-04-29T03:21:21;101629.25;;;20.82;47.39
46710;BME280;32442;51.514;-0.178;2023-04-29T03:23:48;101634.34;;;20.80;47.28
46710;BME280;32442;51.514;-0.178;2023-04-29T03:26:15;101624.25;;;20.79;47.28
46710;BME280;32442;51.514;-0.178;2023-04-29T03:28:42;101638.28;;;20.79;47.28
46710;BME280;32442;51.514;-0.178;2023-04-29T03:31:12;101626.22;;;20.78;47.32
46710;BME280;32442;51.514;-0.178;2023-04-29T03:33:42;101632.94;;;20.77;47.22
46710;BME280;32442;51.514;-0.178;2023-04-29T03:36:09;101631.25;;;20.76;47.51
46710;BME280;32442;51.514;-0.178;2023-04-29T03:38:36;101637.19;;;20.75;47.60
46710;BME280;32442;51.514;-0.178;2023-04-29T03:41:03;101639.16;;;20.74;47.83
46710;BME280;32442;51.514;-0.178;2023-04-29T03:43:31;101635.50;;;20.74;47.43
46710;BME280;32442;51.514;-0.178;2023-04-29T03:45:58;101635.78;;;20.72;47.92
46710;BME280;32442;51.514;-0.178;2023-04-29T03:48:25;101634.16;;;20.71;47.67
46710;BME280;32442;51.514;-0.178;2023-04-29T03:50:52;101638.91;;;20.71;48.12
46710;BME280;32442;51.514;-0.178;2023-04-29T03:53:19;101631.84;;;20.73;47.98
46710;BME280;32442;51.514;-0.178;2023-04-29T03:55:47;101638.91;;;20.71;48.18
46710;BME280;32442;51.514;-0.178;2023-04-29T03:58:14;101636.94;;;20.71;47.91
46710;BME280;32442;51.514;-0.178;2023-04-29T04:00:41;101642.84;;;20.70;48.13
46710;BME280;32442;51.514;-0.178;2023-04-29T04:03:08;101633.31;;;20.71;48.23
46710;BME280;32442;51.514;-0.178;2023-04-29T04:05:36;101630.78;;;20.69;47.87
46710;BME280;32442;51.514;-0.178;2023-04-29T04:08:03;101640.31;;;20.68;48.10
46710;BME280;32442;51.514;-0.178;2023-04-29T04:10:30;101635.84;;;20.67;47.79
46710;BME280;32442;51.514;-0.178;2023-04-29T04:12:59;101637.00;;;20.66;47.90
46710;BME280;32442;51.514;-0.178;2023-04-29T04:15:26;101641.44;;;20.67;47.89
46710;BME280;32442;51.514;-0.178;2023-04-29T04:17:53;101641.75;;;20.66;47.91
46710;BME280;32442;51.514;-0.178;2023-04-29T04:20:20;101645.97;;;20.63;48.04
46710;BME280;32442;51.514;-0.178;2023-04-29T04:22:47;101651.31;;;20.65;48.27
46710;BME280;32442;51.514;-0.178;2023-04-29T04:25:14;101654.16;;;20.60;47.92
46710;BME280;32442;51.514;-0.178;2023-04-29T04:27:41;101652.19;;;20.60;48.01
46710;BME280;32442;51.514;-0.178;2023-04-29T04:30:08;101649.38;;;20.60;47.85
46710;BME280;32442;51.514;-0.178;2023-04-29T04:32:35;101662.56;;;20.60;48.11
46710;BME280;32442;51.514;-0.178;2023-04-29T04:35:03;101663.41;;;20.60;47.95
46710;BME280;32442;51.514;-0.178;2023-04-29T04:37:30;101667.66;;;20.58;48.16
46710;BME280;32442;51.514;-0.178;2023-04-29T04:39:57;101668.78;;;20.57;48.11
46710;BME280;32442;51.514;-0.178;2023-04-29T04:42:24;101680.00;;;20.57;48.23
46710;BME280;32442;51.514;-0.178;2023-04-29T04:44:51;101678.03;;;20.57;47.97
46710;BME280;32442;51.514;-0.178;2023-04-29T04:47:18;101688.72;;;20.55;47.94
46710;BME280;32442;51.514;-0.178;2023-04-29T04:49:45;101689.00;;;20.54;48.06
46710;BME280;32442;51.514;-0.178;2023-04-29T04:52:13;101692.66;;;20.54;48.22
46710;BME280;32442;51.514;-0.178;2023-04-29T04:54:40;101700.22;;;20.54;48.27
46710;BME280;32442;51.514;-0.178;2023-04-29T04:57:07;101707.84;;;20.53;48.30
46710;BME280;32442;51.514;-0.178;2023-04-29T04:59:34;101712.28;;;20.54;48.37
46710;BME280;32442;51.514;-0.178;2023-04-29T05:02:01;101710.34;;;20.55;48.07
46710;BME280;32442;51.514;-0.178;2023-04-29T05:04:28;101717.06;;;20.54;47.95
46710;BME280;32442;51.514;-0.178;2023-04-29T05:06:55;101717.66;;;20.51;48.18
46710;BME280;32442;51.514;-0.178;2023-04-29T05:09:22;101715.69;;;20.51;48.35
46710;BME280;32442;51.514;-0.178;2023-04-29T05:11:49;101710.94;;;20.47;48.56
46710;BME280;32442;51.514;-0.178;2023-04-29T05:14:16;101720.75;;;20.49;48.38
46710;BME280;32442;51.514;-0.178;2023-04-29T05:16:46;101718.25;;;20.48;48.16
46710;BME280;32442;51.514;-0.178;2023-04-29T05:19:13;101726.66;;;20.48;48.25
46710;BME280;32442;51.514;-0.178;2023-04-29T05:21:40;101735.63;;;20.50;48.48
46710;BME280;32442;51.514;-0.178;2023-04-29T05:24:08;101730.31;;;20.48;48.51
46710;BME280;32442;51.514;-0.178;2023-04-29T05:26:35;101739.59;;;20.49;48.54
46710;BME280;32442;51.514;-0.178;2023-04-29T05:29:02;101737.91;;;20.48;48.38
46710;BME280;32442;51.514;-0.178;2023-04-29T05:31:29;101740.13;;;20.46;48.11
46710;BME280;32442;51.514;-0.178;2023-04-29T05:33:56;101735.66;;;20.45;48.11
46710;BME280;32442;51.514;-0.178;2023-04-29T05:36:24;101746.88;;;20.45;48.24
46710;BME280;32442;51.514;-0.178;2023-04-29T05:38:51;101744.38;;;20.43;48.55
46710;BME280;32442;51.514;-0.178;2023-04-29T05:41:18;101745.78;;;20.40;48.50
46710;BME280;32442;51.514;-0.178;2023-04-29T05:43:45;101736.81;;;20.38;48.24
46710;BME280;32442;51.514;-0.178;2023-04-29T05:46:12;101752.53;;;20.39;48.40
46710;BME280;32442;51.514;-0.178;2023-04-29T05:48:39;101745.53;;;20.37;48.23
46710;BME280;32442;51.514;-0.178;2023-04-29T05:51:08;101751.13;;;20.37;48.52
46710;BME280;32442;51.514;-0.178;2023-04-29T05:53:35;101750.00;;;20.38;48.11
46710;BME280;32442;51.514;-0.178;2023-04-29T05:56:04;101757.59;;;20.37;48.60
46710;BME280;32442;51.514;-0.178;2023-04-29T05:58:34;101747.22;;;20.38;48.17
46710;BME280;32442;51.514;-0.178;2023-04-29T06:01:03;101750.28;;;20.36;48.64
46710;BME280;32442;51.514;-0.178;2023-04-29T06:03:33;101753.41;;;20.35;48.28
46710;BME280;32442;51.514;-0.178;2023-04-29T06:06:00;101746.94;;;20.34;48.50
46710;BME280;32442;51.514;-0.178;2023-04-29T06:08:28;101748.91;;;20.34;48.42
46710;BME280;32442;51.514;-0.178;2023-04-29T06:10:55;101733.19;;;20.33;48.40
46710;BME280;32442;51.514;-0.178;2023-04-29T06:13:22;101729.53;;;20.32;48.65
46710;BME280;32442;51.514;-0.178;2023-04-29T06:15:50;101739.66;;;20.33;48.79
46710;BME280;32442;51.514;-0.178;2023-04-29T06:18:20;101741.88;;;20.31;48.52
46710;BME280;32442;51.514;-0.178;2023-04-29T06:20:47;101751.16;;;20.32;48.49
46710;BME280;32442;51.514;-0.178;2023-04-29T06:23:14;101750.63;;;20.30;49.03
46710;BME280;32442;51.514;-0.178;2023-04-29T06:25:41;101750.63;;;20.30;48.58
46710;BME280;32442;51.514;-0.178;2023-04-29T06:28:08;101751.47;;;20.30;49.02
46710;BME280;32442;51.514;-0.178;2023-04-29T06:30:35;101750.63;;;20.30;48.78
46710;BME280;32442;51.514;-0.178;2023-04-29T06:33:02;101755.63;;;20.28;48.82
46710;BME280;32442;51.514;-0.178;2023-04-29T06:35:30;101756.47;;;20.28;48.52
46710;BME280;32442;51.514;-0.178;2023-04-29T06:37:57;101763.78;;;20.29;48.89
46710;BME280;32442;51.514;-0.178;2023-04-29T06:40:24;101763.78;;;20.29;48.89
46710;BME280;32442;51.514;-0.178;2023-04-29T06:42:51;101762.94;;;20.29;48.67
46710;BME280;32442;51.514;-0.178;2023-04-29T06:45:18;101767.13;;;20.26;49.20
46710;BME280;32442;51.514;-0.178;2023-04-29T06:47:45;101768.81;;;20.27;49.07
46710;BME280;32442;51.514;-0.178;2023-04-29T06:50:12;101765.16;;;20.27;49.10
46710;BME280;32442;51.514;-0.178;2023-04-29T06:52:42;101761.81;;;20.25;48.96
46710;BME280;32442;51.514;-0.178;2023-04-29T06:55:09;101775.03;;;20.24;48.78
46710;BME280;32442;51.514;-0.178;2023-04-29T06:57:37;101775.88;;;20.25;49.15
46710;BME280;32442;51.514;-0.178;2023-04-29T07:00:04;101785.41;;;20.24;48.93
46710;BME280;32442;51.514;-0.178;2023-04-29T07:02:32;101794.66;;;20.24;48.93
46710;BME280;32442;51.514;-0.178;2023-04-29T07:04:59;101803.34;;;20.23;49.12
46710;BME280;32442;51.514;-0.178;2023-04-29T07:07:26;101791.28;;;20.22;49.08
46710;BME280;32442;51.514;-0.178;2023-04-29T07:09:53;101789.31;;;20.23;48.81
46710;BME280;32442;51.514;-0.178;2023-04-29T07:12:21;101798.88;;;20.22;48.81
46710;BME280;32442;51.514;-0.178;2023-04-29T07:14:48;101800.84;;;20.21;49.24
46710;BME280;32442;51.514;-0.178;2023-04-29T07:17:15;101801.66;;;20.22;48.86
46710;BME280;32442;51.514;-0.178;2023-04-29T07:19:42;101806.47;;;20.21;48.91
46710;BME280;32442;51.514;-0.178;2023-04-29T07:22:09;101806.47;;;20.21;49.02
46710;BME280;32442;51.514;-0.178;2023-04-29T07:24:38;101812.09;;;20.21;49.03
46710;BME280;32442;51.514;-0.178;2023-04-29T07:27:05;101801.13;;;20.20;49.06
46710;BME280;32442;51.514;-0.178;2023-04-29T07:29:33;101806.47;;;20.21;49.05
46710;BME280;32442;51.514;-0.178;2023-04-29T07:32:04;101814.88;;;20.21;49.16
46710;BME280;32442;51.514;-0.178;2023-04-29T07:34:31;101806.75;;;20.20;49.12
46710;BME280;32442;51.514;-0.178;2023-04-29T07:36:58;101812.34;;;20.20;49.46
46710;BME280;32442;51.514;-0.178;2023-04-29T07:39:25;101813.47;;;20.19;49.57
46710;BME280;32442;51.514;-0.178;2023-04-29T07:41:52;101813.19;;;20.20;49.43
46710;BME280;32442;51.514;-0.178;2023-04-29T07:44:21;101818.25;;;20.18;49.12
46710;BME280;32442;51.514;-0.178;2023-04-29T07:46:48;101821.03;;;20.18;49.11
46710;BME280;32442;51.514;-0.178;2023-04-29T07:49:15;101823.84;;;20.18;49.28
46710;BME280;32442;51.514;-0.178;2023-04-29T07:51:42;101823.00;;;20.18;49.36
46710;BME280;32442;51.514;-0.178;2023-04-29T07:54:10;101830.59;;;20.17;49.15
46710;BME280;32442;51.514;-0.178;2023-04-29T07:56:39;101827.78;;;20.17;49.18
46710;BME280;32442;51.514;-0.178;2023-04-29T07:59:06;101830.59;;;20.17;49.44
46710;BME280;32442;51.514;-0.178;2023-04-29T08:01:34;101830.03;;;20.15;49.22
46710;BME280;32442;51.514;-0.178;2023-04-29T08:04:01;101829.19;;;20.15;49.38
46710;BME280;32442;51.514;-0.178;2023-04-29T08:06:28;101836.78;;;20.14;49.57
46710;BME280;32442;51.514;-0.178;2023-04-29T08:08:56;101838.47;;;20.15;49.48
46710;BME280;32442;51.514;-0.178;2023-04-29T08:11:25;101843.81;;;20.17;49.42
46710;BME280;32442;51.514;-0.178;2023-04-29T08:13:53;101839.84;;;20.13;49.27
46710;BME280;32442;51.514;-0.178;2023-04-29T08:16:22;101840.69;;;20.13;49.28
46710;BME280;32442;51.514;-0.178;2023-04-29T08:18:52;101837.34;;;20.16;49.38
46710;BME280;32442;51.514;-0.178;2023-04-29T08:21:19;101832.84;;;20.15;49.45
46710;BME280;32442;51.514;-0.178;2023-04-29T08:23:46;101837.88;;;20.13;49.57
46710;BME280;32442;51.514;-0.178;2023-04-29T08:26:13;101835.66;;;20.15;49.48
46710;BME280;32442;51.514;-0.178;2023-04-29T08:28:41;101839.31;;;20.16;49.18
46710;BME280;32442;51.514;-0.178;2023-04-29T08:31:14;101835.34;;;20.22;49.09
46710;BME280;32442;51.514;-0.178;2023-04-29T08:33:42;101837.88;;;20.28;49.46
46710;BME280;32442;51.514;-0.178;2023-04-29T08:36:09;101835.06;;;20.33;49.68
46710;BME280;32442;51.514;-0.178;2023-04-29T08:38:36;101839.84;;;20.38;49.28
46710;BME280;32442;51.514;-0.178;2023-04-29T08:41:03;101841.78;;;20.42;49.50
46710;BME280;32442;51.514;-0.178;2023-04-29T08:43:33;101842.63;;;20.48;49.39
46710;BME280;32442;51.514;-0.178;2023-04-29T08:46:01;101848.75;;;20.55;49.08
46710;BME280;32442;51.514;-0.178;2023-04-29T08:48:29;101850.69;;;20.60;49.54
46710;BME280;32442;51.514;-0.178;2023-04-29T08:51:01;101851.25;;;20.67;49.38
46710;BME280;32442;51.514;-0.178;2023-04-29T08:53:28;101858.81;;;20.71;49.18
46710;BME280;32442;51.514;-0.178;2023-04-29T08:55:56;101856.22;;;20.80;48.97
46710;BME280;32442;51.514;-0.178;2023-04-29T08:58:24;101865.44;;;20.85;49.04
46710;BME280;32442;51.514;-0.178;2023-04-29T09:00:52;101867.69;;;20.94;49.06
46710;BME280;32442;51.514;-0.178;2023-04-29T09:03:29;101870.16;;;21.00;48.90
46710;BME280;32442;51.514;-0.178;2023-04-29T09:05:59;101873.50;;;21.07;48.67
46710;BME280;32442;51.514;-0.178;2023-04-29T09:08:26;101870.97;;;21.16;48.34
46710;BME280;32442;51.514;-0.178;2023-04-29T09:10:54;101871.47;;;21.23;48.45
46710;BME280;32442;51.514;-0.178;2023-04-29T09:13:23;101865.53;;;21.29;47.94
46710;BME280;32442;51.514;-0.178;2023-04-29T09:15:51;101871.66;;;21.37;48.04
46710;BME280;32442;51.514;-0.178;2023-04-29T09:20:54;101870.72;;;21.51;47.51
46710;BME280;32442;51.514;-0.178;2023-04-29T09:23:22;101867.25;;;21.59;47.38
46710;BME280;32442;51.514;-0.178;2023-04-29T09:26:02;101879.03;;;21.66;47.14
46710;BME280;32442;51.514;-0.178;2023-04-29T09:28:29;101878.69;;;21.73;47.29
46710;BME280;32442;51.514;-0.178;2023-04-29T09:31:01;101877.22;;;21.81;47.03
46710;BME280;32442;51.514;-0.178;2023-04-29T09:33:47;101887.84;;;21.89;46.67
46710;BME280;32442;51.514;-0.178;2023-04-29T09:36:32;101873.44;;;21.95;46.76
46710;BME280;32442;51.514;-0.178;2023-04-29T09:39:01;101880.44;;;22.03;46.35
46710;BME280;32442;51.514;-0.178;2023-04-29T09:41:28;101884.88;;;22.09;46.29
46710;BME280;32442;51.514;-0.178;2023-04-29T09:46:32;101879.38;;;22.23;45.98
46710;BME280;32442;51.514;-0.178;2023-04-29T09:49:00;101881.84;;;22.29;46.08
46710;BME280;32442;51.514;-0.178;2023-04-29T09:51:27;101889.66;;;22.37;45.70
46710;BME280;32442;51.514;-0.178;2023-04-29T09:53:59;101886.50;;;22.44;45.49
46710;BME280;32442;51.514;-0.178;2023-04-29T09:56:27;101881.31;;;22.51;45.51
46710;BME280;32442;51.514;-0.178;2023-04-29T09:58:57;101878.16;;;22.57;45.08
46710;BME280;32442;51.514;-0.178;2023-04-29T10:01:33;101881.44;;;22.65;45.39
46710;BME280;32442;51.514;-0.178;2023-04-29T10:04:01;101877.47;;;22.71;44.75
46710;BME280;32442;51.514;-0.178;2023-04-29T10:06:29;101883.94;;;22.71;44.22
46710;BME280;32442;51.514;-0.178;2023-04-29T10:08:56;101878.59;;;22.70;43.77
46710;BME280;32442;51.514;-0.178;2023-04-29T10:11:24;101878.00;;;22.73;43.55
46710;BME280;32442;51.514;-0.178;2023-04-29T10:13:52;101877.69;;;22.74;43.60
46710;BME280;32442;51.514;-0.178;2023-04-29T10:16:27;101882.50;;;22.74;43.49
46710;BME280;32442;51.514;-0.178;2023-04-29T10:18:55;101887.84;;;22.75;43.23
46710;BME280;32442;51.514;-0.178;2023-04-29T10:21:26;101882.19;;;22.75;42.90
46710;BME280;32442;51.514;-0.178;2023-04-29T10:23:55;101884.19;;;22.75;42.87
46710;BME280;32442;51.514;-0.178;2023-04-29T10:26:25;101883.03;;;22.76;42.84
46710;BME280;32442;51.514;-0.178;2023-04-29T10:28:54;101885.53;;;22.77;43.02
46710;BME280;32442;51.514;-0.178;2023-04-29T10:31:22;101883.03;;;22.76;42.78
46710;BME280;32442;51.514;-0.178;2023-04-29T10:33:51;101879.06;;;22.77;43.05
46710;BME280;32442;51.514;-0.178;2023-04-29T10:36:21;101879.91;;;22.77;42.59
46710;BME280;32442;51.514;-0.178;2023-04-29T10:38:50;101886.09;;;22.79;42.59
46710;BME280;32442;51.514;-0.178;2023-04-29T10:41:22;101883.28;;;22.79;42.55
46710;BME280;32442;51.514;-0.178;2023-04-29T10:43:52;101871.16;;;22.79;42.84
46710;BME280;32442;51.514;-0.178;2023-04-29T10:46:20;101874.81;;;22.79;42.27
46710;BME280;32442;51.514;-0.178;2023-04-29T10:48:49;101871.16;;;22.79;42.24
46710;BME280;32442;51.514;-0.178;2023-04-29T10:59:03;101877.88;;;22.83;42.36
46710;BME280;32442;51.514;-0.178;2023-04-29T11:01:46;101875.03;;;22.83;42.04
46710;BME280;32442;51.514;-0.178;2023-04-29T11:04:16;101875.88;;;22.83;42.04
46710;BME280;32442;51.514;-0.178;2023-04-29T11:06:45;101866.59;;;22.83;41.90
46710;BME280;32442;51.514;-0.178;2023-04-29T11:09:17;101876.72;;;22.84;42.07
46710;BME280;32442;51.514;-0.178;2023-04-29T11:14:13;101867.97;;;22.85;42.11
46710;BME280;32442;51.514;-0.178;2023-04-29T11:21:34;101870.19;;;22.88;42.52
46710;BME280;32442;51.514;-0.178;2023-04-29T11:24:02;101871.88;;;22.89;42.38
46710;BME280;32442;51.514;-0.178;2023-04-29T11:26:30;101873.84;;;22.89;42.21
46710;BME280;32442;51.514;-0.178;2023-04-29T11:28:57;101875.00;;;22.88;42.00
46710;BME280;32442;51.514;-0.178;2023-04-29T11:31:25;101874.69;;;22.89;42.32
46710;BME280;32442;51.514;-0.178;2023-04-29T11:33:54;101882.31;;;22.89;42.11
46710;BME280;32442;51.514;-0.178;2023-04-29T11:36:21;101875.00;;;22.88;42.19
46710;BME280;32442;51.514;-0.178;2023-04-29T11:38:48;101878.94;;;22.87;42.14
46710;BME280;32442;51.514;-0.178;2023-04-29T11:41:15;101868.81;;;22.86;42.05
46710;BME280;32442;51.514;-0.178;2023-04-29T11:43:44;101867.44;;;22.83;41.89
46710;BME280;32442;51.514;-0.178;2023-04-29T11:46:12;101866.59;;;22.83;42.20
46710;BME280;32442;51.514;-0.178;2023-04-29T11:48:47;101864.06;;;22.81;42.12
46710;BME280;32442;51.514;-0.178;2023-04-29T11:51:15;101865.75;;;22.82;42.31
46710;BME280;32442;51.514;-0.178;2023-04-29T11:53:43;101864.31;;;22.85;42.37
46710;BME280;32442;51.514;-0.178;2023-04-29T11:56:13;101866.53;;;22.88;41.90
46710;BME280;32442;51.514;-0.178;2023-04-29T11:58:41;101855.25;;;22.88;41.86
46710;BME280;32442;51.514;-0.178;2023-04-29T12:01:08;101869.56;;;22.91;42.14
46710;BME280;32442;51.514;-0.178;2023-04-29T12:03:36;101865.00;;;22.95;41.99
46710;BME280;32442;51.514;-0.178;2023-04-29T12:06:03;101872.03;;;22.98;42.45
46710;BME280;32442;51.514;-0.178;2023-04-29T12:08:33;101867.97;;;23.04;42.17
46710;BME280;32442;51.514;-0.178;2023-04-29T12:11:00;101858.63;;;23.09;42.32
46710;BME280;32442;51.514;-0.178;2023-04-29T12:13:28;101869.31;;;23.12;42.05
46710;BME280;32442;51.514;-0.178;2023-04-29T12:15:57;101855.44;;;23.15;41.91
46710;BME280;32442;51.514;-0.178;2023-04-29T12:18:25;101853.13;;;23.17;41.41
46710;BME280;32442;51.514;-0.178;2023-04-29T12:20:53;101860.09;;;23.25;41.35
46710;BME280;32442;51.514;-0.178;2023-04-29T12:23:25;101856.66;;;23.28;41.07
46710;BME280;32442;51.514;-0.178;2023-04-29T12:25:55;101858.56;;;23.32;41.14
46710;BME280;32442;51.514;-0.178;2023-04-29T12:28:22;101852.31;;;23.54;41.42
46710;BME280;32442;51.514;-0.178;2023-04-29T12:30:50;101855.34;;;23.58;41.59
46710;BME280;32442;51.514;-0.178;2023-04-29T12:33:21;101855.59;;;23.61;40.69
46710;BME280;32442;51.514;-0.178;2023-04-29T12:35:49;101844.22;;;23.66;40.54
46710;BME280;32442;51.514;-0.178;2023-04-29T12:38:20;101852.06;;;23.69;40.48
46710;BME280;32442;51.514;-0.178;2023-04-29T12:40:47;101849.16;;;23.74;40.50
46710;BME280;32442;51.514;-0.178;2023-04-29T12:43:16;101851.84;;;23.66;39.72
46710;BME280;32442;51.514;-0.178;2023-04-29T12:45:44;101858.34;;;23.66;40.97
46710;BME280;32442;51.514;-0.178;2023-04-29T12:48:11;101852.69;;;23.66;42.28
46710;BME280;32442;51.514;-0.178;2023-04-29T12:50:54;101847.69;;;23.77;42.41
46710;BME280;32442;51.514;-0.178;2023-04-29T12:53:24;101853.25;;;23.82;42.20
46710;BME280;32442;51.514;-0.178;2023-04-29T12:55:51;101854.00;;;23.87;42.04
46710;BME280;32442;51.514;-0.178;2023-04-29T12:58:19;101848.88;;;23.89;41.77
46710;BME280;32442;51.514;-0.178;2023-04-29T13:00:46;101847.94;;;23.94;41.50
46710;BME280;32442;51.514;-0.178;2023-04-29T13:03:13;101850.75;;;23.94;41.25
46710;BME280;32442;51.514;-0.178;2023-04-29T13:05:41;101845.44;;;23.92;41.00
46710;BME280;32442;51.514;-0.178;2023-04-29T13:08:08;101841.25;;;23.90;41.33
46710;BME280;32442;51.514;-0.178;2023-04-29T13:10:35;101839.25;;;23.90;41.19
46710;BME280;32442;51.514;-0.178;2023-04-29T13:13:02;101842.09;;;23.90;41.18
46710;BME280;32442;51.514;-0.178;2023-04-29T13:15:29;101834.25;;;23.87;41.21
46710;BME280;32442;51.514;-0.178;2023-04-29T13:17:57;101834.34;;;23.82;41.47
46710;BME280;32442;51.514;-0.178;2023-04-29T13:20:24;101839.44;;;23.80;41.08